Time;durP1;ratioP1;P1;durP2;ratioP2;P2;SDS_P1;SDS_P2;PMS_P1;PMS_P2;Temp;Humidity;BMP_temperature;BMP_pressure;BME280_temperature;BME280_humidity;BME280_pressure;Samples;Min_cycle;Max_cycle;Signal;HPM_P1;HPM_P2
2021/07/08 00:01:23;;;;;;;19.73;13.70;;;;;;;;;;5114536;28;20099;-69
2021/07/08 00:03:49;;;;;;;20.35;14.77;;;;;;;;;;5114507;28;20047;-70
2021/07/08 00:06:15;;;;;;;23.70;16.27;;;;;;;;;;5113097;28;20131;-70
2021/07/08 00:08:41;;;;;;;28.88;17.55;;;;;;;;;;5113110;28;20024;-68
2021/07/08 00:11:07;;;;;;;28.98;17.15;;;;;;;;;;5114448;28;20103;-67
2021/07/08 00:13:34;;;;;;;29.88;17.27;;;;;;;;;;5113004;28;20027;-69
2021/07/08 00:16:00;;;;;;;21.75;15.77;;;;;;;;;;5114356;28;20023;-69
2021/07/08 00:18:27;;;;;;;25.80;16.38;;;;;;;;;;5114209;28;20079;-69
2021/07/08 00:20:54;;;;;;;24.17;16.25;;;;;;;;;;5114247;28;20049;-67
2021/07/08 00:23:21;;;;;;;20.35;15.85;;;;;;;;;;5114167;28;20106;-70
2021/07/08 00:25:48;;;;;;;18.88;15.82;;;;;;;;;;5114100;28;20028;-68
2021/07/08 00:28:15;;;;;;;24.67;16.52;;;;;;;;;;5114045;28;20039;-70
2021/07/08 00:30:45;;;;;;;23.83;15.85;;;;;;;;;;5113650;28;20072;-68
2021/07/08 00:33:11;;;;;;;24.17;15.65;;;;;;;;;;5114269;28;20130;-69
2021/07/08 00:35:39;;;;;;;18.02;15.95;;;;;;;;;;5117713;27;20019;-70
2021/07/08 00:38:06;;;;;;;20.25;16.55;;;;;;;;;;5138775;27;20027;-68
2021/07/08 00:40:32;;;;;;;22.58;14.90;;;;;;;;;;5139078;27;20011;-68
2021/07/08 00:42:58;;;;;;;25.63;16.67;;;;;;;;;;5120128;27;20055;-68
2021/07/08 00:45:25;;;;;;;18.83;15.35;;;;;;;;;;5138525;27;20482;-69
2021/07/08 00:47:53;;;;;;;19.20;14.43;;;;;;;;;;5138689;27;20030;-70
2021/07/08 00:50:30;;;;;;;21.77;15.18;;;;;;;;;;5138832;27;20031;-67
2021/07/08 00:52:57;;;;;;;24.70;15.25;;;;;;;;;;5135752;27;20023;-68
2021/07/08 00:55:23;;;;;;;19.67;14.30;;;;;;;;;;5134162;27;20030;-67
2021/07/08 00:57:52;;;;;;;20.52;14.63;;;;;;;;;;5134126;27;20038;-69
2021/07/08 01:00:24;;;;;;;18.90;15.10;;;;;;;;;;5134209;27;20011;-69
2021/07/08 01:02:51;;;;;;;20.42;15.23;;;;;;;;;;5134195;27;20039;-69
2021/07/08 01:05:19;;;;;;;21.83;15.93;;;;;;;;;;5134069;27;20464;-68
2021/07/08 01:07:45;;;;;;;19.73;15.77;;;;;;;;;;5133990;27;20031;-72
2021/07/08 01:10:13;;;;;;;22.40;15.95;;;;;;;;;;5134060;28;20471;-70
2021/07/08 01:12:39;;;;;;;24.27;16.73;;;;;;;;;;5115629;28;20063;-69
2021/07/08 01:15:06;;;;;;;20.25;15.70;;;;;;;;;;5134009;28;20098;-69
2021/07/08 01:17:32;;;;;;;19.25;15.20;;;;;;;;;;5133987;28;20027;-65
2021/07/08 01:19:59;;;;;;;20.20;15.52;;;;;;;;;;5133662;28;20114;-69
2021/07/08 01:22:25;;;;;;;20.38;14.70;;;;;;;;;;5115592;28;20478;-70
2021/07/08 01:24:51;;;;;;;17.77;13.90;;;;;;;;;;5134184;28;20047;-69
2021/07/08 01:27:17;;;;;;;21.25;15.07;;;;;;;;;;5133808;28;20031;-69
2021/07/08 01:29:44;;;;;;;24.02;15.73;;;;;;;;;;5134151;28;20431;-68
2021/07/08 01:32:10;;;;;;;20.95;16.25;;;;;;;;;;5133856;28;20092;-68
2021/07/08 01:34:37;;;;;;;23.80;18.27;;;;;;;;;;5115352;28;20012;-69
2021/07/08 01:37:03;;;;;;;27.05;16.95;;;;;;;;;;5133259;28;20130;-67
2021/07/08 01:39:29;;;;;;;26.58;17.23;;;;;;;;;;5133811;28;20051;-68
2021/07/08 01:41:56;;;;;;;27.73;18.92;;;;;;;;;;5134800;27;20023;-67
2021/07/08 01:44:22;;;;;;;29.75;19.02;;;;;;;;;;5119321;27;20019;-67
2021/07/08 01:46:49;;;;;;;29.50;19.02;;;;;;;;;;5137664;27;20030;-69
2021/07/08 01:49:15;;;;;;;23.90;19.45;;;;;;;;;;5137733;27;20023;-69
2021/07/08 01:51:44;;;;;;;23.27;18.73;;;;;;;;;;5137725;27;20019;-70
2021/07/08 01:54:10;;;;;;;27.63;18.90;;;;;;;;;;5137606;27;20498;-70
2021/07/08 01:56:37;;;;;;;24.67;19.35;;;;;;;;;;5119122;27;20080;-71
2021/07/08 01:59:04;;;;;;;21.77;19.48;;;;;;;;;;5137539;27;20020;-69
2021/07/08 02:01:30;;;;;;;22.02;19.13;;;;;;;;;;5118986;27;20122;-68
2021/07/08 02:03:56;;;;;;;21.05;18.50;;;;;;;;;;5137387;27;20061;-69
2021/07/08 02:06:23;;;;;;;24.42;19.05;;;;;;;;;;5137308;27;20062;-68
2021/07/08 02:08:50;;;;;;;31.27;21.50;;;;;;;;;;5137000;27;20185;-70
2021/07/08 02:11:16;;;;;;;23.95;19.85;;;;;;;;;;5118894;27;20023;-70
2021/07/08 02:13:43;;;;;;;21.75;17.73;;;;;;;;;;5136928;27;20165;-74
2021/07/08 02:16:10;;;;;;;23.10;17.38;;;;;;;;;;5118712;27;20068;-67
2021/07/08 02:18:37;;;;;;;25.67;19.10;;;;;;;;;;5137166;27;20491;-68
2021/07/08 02:21:04;;;;;;;24.55;18.65;;;;;;;;;;5137062;27;20019;-69
2021/07/08 02:23:31;;;;;;;29.52;19.98;;;;;;;;;;5137022;27;20098;-68
2021/07/08 02:25:58;;;;;;;22.90;19.20;;;;;;;;;;5136936;27;20023;-69
2021/07/08 02:28:24;;;;;;;23.20;20.05;;;;;;;;;;5136937;27;20031;-66
2021/07/08 02:30:50;;;;;;;27.85;20.02;;;;;;;;;;5136855;27;20094;-66
2021/07/08 02:33:16;;;;;;;27.40;19.90;;;;;;;;;;5136891;27;20129;-67
2021/07/08 02:35:43;;;;;;;24.58;19.88;;;;;;;;;;5118166;27;20855;-65
2021/07/08 02:38:09;;;;;;;28.42;19.80;;;;;;;;;;5136837;27;20026;-68
2021/07/08 02:40:38;;;;;;;23.70;18.83;;;;;;;;;;5118246;27;20046;-69
2021/07/08 02:43:05;;;;;;;24.80;20.65;;;;;;;;;;5118291;27;20371;-68
2021/07/08 02:45:32;;;;;;;27.25;20.42;;;;;;;;;;5118140;27;20015;-68
2021/07/08 02:48:00;;;;;;;26.20;20.27;;;;;;;;;;5136544;27;20078;-66
2021/07/08 02:50:27;;;;;;;22.30;17.42;;;;;;;;;;5136786;27;20102;-70
2021/07/08 02:52:53;;;;;;;25.48;18.13;;;;;;;;;;5117422;28;20028;-68
2021/07/08 02:55:20;;;;;;;22.40;18.25;;;;;;;;;;5135833;27;20246;-66
2021/07/08 02:57:46;;;;;;;21.75;17.60;;;;;;;;;;5136370;27;20072;-70
2021/07/08 03:00:14;;;;;;;22.75;16.30;;;;;;;;;;5117906;27;20027;-68
2021/07/08 03:02:40;;;;;;;20.83;17.00;;;;;;;;;;5136341;27;20387;-70
2021/07/08 03:05:07;;;;;;;18.42;16.40;;;;;;;;;;5136266;27;20023;-69
2021/07/08 03:07:34;;;;;;;19.45;16.83;;;;;;;;;;5136131;27;20481;-71
2021/07/08 03:10:01;;;;;;;19.25;15.90;;;;;;;;;;5136173;27;20441;-67
2021/07/08 03:12:27;;;;;;;23.52;17.15;;;;;;;;;;5136166;27;20046;-69
2021/07/08 03:14:53;;;;;;;17.67;14.90;;;;;;;;;;5117563;27;20102;-69
2021/07/08 03:17:19;;;;;;;19.35;16.08;;;;;;;;;;5117513;27;20126;-69
2021/07/08 03:19:45;;;;;;;20.60;16.58;;;;;;;;;;5117731;27;20445;-68
2021/07/08 03:22:12;;;;;;;19.17;17.15;;;;;;;;;;5135987;27;20589;-69
2021/07/08 03:24:38;;;;;;;17.83;15.93;;;;;;;;;;5135860;27;20106;-69
2021/07/08 03:27:04;;;;;;;18.60;16.02;;;;;;;;;;5135676;27;20023;-69
2021/07/08 03:29:31;;;;;;;19.60;15.80;;;;;;;;;;5135491;27;20044;-71
2021/07/08 03:31:57;;;;;;;18.70;16.10;;;;;;;;;;5117352;27;20114;-71
2021/07/08 03:34:23;;;;;;;18.48;15.43;;;;;;;;;;5135605;27;20030;-69
2021/07/08 03:36:49;;;;;;;21.20;15.27;;;;;;;;;;5135332;27;20463;-67
2021/07/08 03:39:15;;;;;;;20.75;16.33;;;;;;;;;;5135547;27;20027;-66
2021/07/08 03:41:42;;;;;;;19.63;15.32;;;;;;;;;;5135495;27;20114;-66
2021/07/08 03:44:08;;;;;;;23.17;15.15;;;;;;;;;;5135525;27;20023;-68
2021/07/08 03:46:34;;;;;;;19.60;15.98;;;;;;;;;;5116810;27;20509;-67
2021/07/08 03:49:00;;;;;;;23.65;14.80;;;;;;;;;;5135349;27;20035;-65
2021/07/08 03:51:27;;;;;;;20.70;14.80;;;;;;;;;;5135293;27;20379;-67
2021/07/08 03:53:53;;;;;;;20.05;14.40;;;;;;;;;;5116844;27;20058;-67
2021/07/08 03:56:19;;;;;;;20.30;14.57;;;;;;;;;;5135229;27;20625;-68
2021/07/08 03:58:45;;;;;;;19.95;15.35;;;;;;;;;;5135179;27;20102;-70
2021/07/08 04:01:11;;;;;;;27.42;14.98;;;;;;;;;;5135149;27;20110;-69
2021/07/08 04:03:38;;;;;;;19.60;15.25;;;;;;;;;;5135114;27;20027;-71
2021/07/08 04:06:04;;;;;;;17.05;15.13;;;;;;;;;;5115973;27;20077;-69
2021/07/08 04:08:31;;;;;;;19.63;16.30;;;;;;;;;;5134967;27;20091;-68
2021/07/08 04:10:57;;;;;;;24.10;16.48;;;;;;;;;;5135229;27;20062;-67
2021/07/08 04:13:23;;;;;;;20.38;15.82;;;;;;;;;;5135200;27;20405;-68
2021/07/08 04:15:50;;;;;;;19.23;15.05;;;;;;;;;;5134855;27;20019;-70
2021/07/08 04:18:17;;;;;;;18.85;15.30;;;;;;;;;;5116296;27;20107;-69
2021/07/08 04:20:45;;;;;;;19.55;13.82;;;;;;;;;;5116257;27;20020;-71
2021/07/08 04:23:11;;;;;;;19.05;14.52;;;;;;;;;;5134761;27;20110;-69
2021/07/08 04:25:38;;;;;;;19.30;17.17;;;;;;;;;;5134952;27;20094;-70
2021/07/08 04:28:04;;;;;;;23.70;18.90;;;;;;;;;;5134556;27;20026;-70
2021/07/08 04:30:31;;;;;;;21.83;17.35;;;;;;;;;;5116084;27;20031;-72
2021/07/08 04:32:57;;;;;;;19.00;14.70;;;;;;;;;;5134584;27;20499;-68
2021/07/08 04:35:32;;;;;;;21.83;18.95;;;;;;;;;;5115901;27;20023;-68
2021/07/08 04:37:59;;;;;;;21.15;14.70;;;;;;;;;;5134555;27;20345;-72
2021/07/08 04:40:26;;;;;;;18.20;15.27;;;;;;;;;;5115952;27;20431;-70
2021/07/08 04:42:52;;;;;;;19.58;14.77;;;;;;;;;;5115950;27;20019;-70
2021/07/08 04:45:19;;;;;;;23.15;17.10;;;;;;;;;;5134332;27;20511;-70
2021/07/08 04:47:46;;;;;;;28.48;18.90;;;;;;;;;;5134112;27;20102;-70
2021/07/08 04:50:15;;;;;;;23.75;16.17;;;;;;;;;;5134243;27;20023;-68
2021/07/08 04:52:41;;;;;;;22.00;16.33;;;;;;;;;;5134144;27;20012;-68
2021/07/08 04:55:09;;;;;;;22.10;16.65;;;;;;;;;;5115764;27;20046;-70
2021/07/08 04:57:36;;;;;;;24.08;15.88;;;;;;;;;;5134187;27;20478;-68
2021/07/08 05:00:04;;;;;;;20.95;15.68;;;;;;;;;;5134147;27;20023;-70
2021/07/08 05:02:30;;;;;;;21.10;18.65;;;;;;;;;;5115685;27;20448;-68
2021/07/08 05:04:56;;;;;;;19.08;16.73;;;;;;;;;;5133813;27;20027;-72
2021/07/08 05:07:22;;;;;;;24.10;19.35;;;;;;;;;;5133647;27;20065;-70
2021/07/08 05:09:48;;;;;;;24.85;20.08;;;;;;;;;;5134033;28;20502;-70
2021/07/08 05:12:14;;;;;;;31.70;19.63;;;;;;;;;;5115533;28;20015;-69
2021/07/08 05:14:41;;;;;;;23.88;19.17;;;;;;;;;;5115490;28;20445;-69
2021/07/08 05:17:07;;;;;;;25.05;19.45;;;;;;;;;;5116893;27;20027;-69
2021/07/08 05:19:33;;;;;;;33.10;24.60;;;;;;;;;;5138260;27;20019;-69
2021/07/08 05:22:00;;;;;;;31.77;23.05;;;;;;;;;;5138167;27;20106;-69
2021/07/08 05:24:26;;;;;;;37.65;22.70;;;;;;;;;;5138154;27;20058;-71
2021/07/08 05:26:54;;;;;;;30.27;22.92;;;;;;;;;;5118902;27;20018;-70
2021/07/08 05:29:24;;;;;;;24.58;21.88;;;;;;;;;;5137891;27;20039;-68
2021/07/08 05:31:51;;;;;;;34.33;23.05;;;;;;;;;;5138030;27;20114;-68
2021/07/08 05:34:17;;;;;;;28.63;22.73;;;;;;;;;;5137816;27;20027;-69
2021/07/08 05:36:43;;;;;;;29.05;22.42;;;;;;;;;;5119126;27;20562;-71
2021/07/08 05:39:10;;;;;;;24.08;20.35;;;;;;;;;;5138101;27;20027;-71
2021/07/08 05:41:36;;;;;;;25.08;18.60;;;;;;;;;;5119277;27;20023;-67
2021/07/08 05:44:02;;;;;;;30.60;18.05;;;;;;;;;;5119042;27;20015;-64
2021/07/08 05:46:28;;;;;;;37.38;19.38;;;;;;;;;;5118935;27;20035;-67
2021/07/08 05:49:30;;;;;;;28.73;20.88;;;;;;;;;;5118414;27;20136;-66
2021/07/08 05:51:56;;;;;;;24.77;19.35;;;;;;;;;;5135191;27;20023;-70
2021/07/08 05:54:23;;;;;;;27.63;20.50;;;;;;;;;;5135905;27;20078;-69
2021/07/08 05:56:49;;;;;;;29.77;20.70;;;;;;;;;;5136679;27;20027;-68
2021/07/08 05:59:15;;;;;;;28.23;21.17;;;;;;;;;;5137047;27;20072;-68
2021/07/08 06:01:41;;;;;;;28.30;18.63;;;;;;;;;;5135963;27;20027;-70
2021/07/08 06:04:07;;;;;;;27.33;18.92;;;;;;;;;;5136548;27;20098;-65
2021/07/08 06:06:34;;;;;;;31.45;20.05;;;;;;;;;;5118836;27;20491;-67
2021/07/08 06:09:00;;;;;;;28.23;17.85;;;;;;;;;;5118776;27;20383;-66
2021/07/08 06:11:26;;;;;;;22.63;18.10;;;;;;;;;;5137223;27;20109;-66
2021/07/08 06:13:53;;;;;;;25.55;17.48;;;;;;;;;;5137509;27;20094;-68
2021/07/08 06:16:19;;;;;;;25.30;16.55;;;;;;;;;;5118665;27;20463;-68
2021/07/08 06:18:45;;;;;;;27.45;17.00;;;;;;;;;;5137031;27;20023;-68
2021/07/08 06:21:14;;;;;;;20.40;16.42;;;;;;;;;;5137014;27;20102;-66
2021/07/08 06:23:40;;;;;;;19.15;16.02;;;;;;;;;;5136883;27;20113;-65
2021/07/08 06:26:07;;;;;;;21.92;15.30;;;;;;;;;;5136665;27;20021;-66
2021/07/08 06:28:34;;;;;;;17.83;14.95;;;;;;;;;;5136603;27;20110;-65
2021/07/08 06:31:00;;;;;;;23.73;14.93;;;;;;;;;;5136803;27;20034;-66
2021/07/08 06:33:27;;;;;;;15.68;13.80;;;;;;;;;;5136809;27;20025;-65
2021/07/08 06:35:54;;;;;;;15.40;13.60;;;;;;;;;;5118043;27;20134;-66
2021/07/08 06:38:20;;;;;;;24.75;14.65;;;;;;;;;;5136860;27;20049;-66
2021/07/08 06:40:46;;;;;;;15.63;13.48;;;;;;;;;;5136644;27;20110;-65
2021/07/08 06:43:12;;;;;;;24.45;17.05;;;;;;;;;;5136549;27;20054;-67
2021/07/08 06:45:39;;;;;;;20.30;15.38;;;;;;;;;;5136654;27;20054;-67
2021/07/08 06:48:06;;;;;;;23.83;15.25;;;;;;;;;;5136580;27;20019;-68
2021/07/08 06:50:36;;;;;;;25.00;15.75;;;;;;;;;;5136533;27;20019;-66
2021/07/08 06:53:03;;;;;;;25.63;14.00;;;;;;;;;;5135825;27;20019;-66
2021/07/08 06:55:29;;;;;;;27.23;15.25;;;;;;;;;;5136455;27;20019;-67
2021/07/08 06:57:56;;;;;;;22.02;13.50;;;;;;;;;;5136414;27;20027;-67
2021/07/08 07:00:26;;;;;;;27.55;13.35;;;;;;;;;;5136368;27;20396;-67
2021/07/08 07:02:53;;;;;;;18.20;11.75;;;;;;;;;;5117709;27;20451;-70
2021/07/08 07:05:19;;;;;;;21.58;12.82;;;;;;;;;;5117864;27;20106;-67
2021/07/08 07:07:46;;;;;;;20.20;12.35;;;;;;;;;;5135733;27;20054;-69
2021/07/08 07:10:13;;;;;;;18.48;11.13;;;;;;;;;;5136374;27;20114;-71
2021/07/08 07:12:46;;;;;;;19.33;12.32;;;;;;;;;;5136075;27;20023;-68
2021/07/08 07:15:13;;;;;;;18.30;10.70;;;;;;;;;;5117644;27;20027;-69
2021/07/08 07:17:39;;;;;;;15.63;11.38;;;;;;;;;;5135993;27;20030;-70
2021/07/08 07:20:07;;;;;;;28.17;11.90;;;;;;;;;;5135926;27;20019;-69
2021/07/08 07:22:33;;;;;;;19.13;11.27;;;;;;;;;;5135841;27;20102;-69
2021/07/08 07:25:00;;;;;;;16.77;11.70;;;;;;;;;;5135892;27;20371;-68
2021/07/08 07:27:26;;;;;;;18.95;11.07;;;;;;;;;;5135693;27;20019;-67
2021/07/08 07:29:52;;;;;;;13.45;10.50;;;;;;;;;;5135742;27;20023;-67
2021/07/08 07:32:18;;;;;;;16.60;10.77;;;;;;;;;;5117264;27;20112;-68
2021/07/08 07:37:51;;;;;;;14.23;10.35;;;;;;;;;;5135538;27;20085;-67
2021/07/08 07:40:18;;;;;;;11.02;9.70;;;;;;;;;;5116224;27;20023;-67
2021/07/08 07:42:44;;;;;;;17.10;10.77;;;;;;;;;;5135409;27;20016;-66
2021/07/08 07:45:11;;;;;;;12.30;9.90;;;;;;;;;;5135428;27;20030;-67
2021/07/08 07:47:38;;;;;;;22.90;10.77;;;;;;;;;;5134190;27;20094;-69
2021/07/08 07:50:05;;;;;;;11.55;8.60;;;;;;;;;;5133741;27;20515;-69
2021/07/08 07:52:32;;;;;;;10.52;9.43;;;;;;;;;;5114735;27;20111;-66
2021/07/08 07:54:58;;;;;;;11.88;9.57;;;;;;;;;;5134122;27;20021;-67
2021/07/08 07:57:25;;;;;;;10.48;9.40;;;;;;;;;;5133186;27;20420;-67
2021/07/08 07:59:51;;;;;;;10.73;8.98;;;;;;;;;;5134270;27;20106;-67
2021/07/08 08:02:18;;;;;;;12.50;9.38;;;;;;;;;;5134943;27;20114;-66
2021/07/08 08:05:07;;;;;;;14.18;8.40;;;;;;;;;;5133277;27;20047;-66
2021/07/08 08:10:16;;;;;;;10.82;9.60;;;;;;;;;;5134562;27;20096;-66
2021/07/08 08:12:42;;;;;;;11.15;8.60;;;;;;;;;;5134721;27;20102;-69
2021/07/08 08:15:10;;;;;;;11.77;8.30;;;;;;;;;;5134549;27;20092;-70
2021/07/08 08:17:37;;;;;;;14.77;7.88;;;;;;;;;;5134749;27;20027;-66
2021/07/08 08:20:04;;;;;;;22.65;9.45;;;;;;;;;;5134661;27;20023;-68
2021/07/08 08:22:31;;;;;;;12.38;8.43;;;;;;;;;;5134309;27;20129;-67
2021/07/08 08:24:57;;;;;;;12.65;8.35;;;;;;;;;;5134684;27;20023;-69
2021/07/08 08:27:23;;;;;;;14.07;7.75;;;;;;;;;;5116052;27;20023;-69
2021/07/08 08:29:50;;;;;;;10.63;8.05;;;;;;;;;;5116149;27;20023;-67
2021/07/08 08:32:16;;;;;;;12.38;7.95;;;;;;;;;;5134543;27;20011;-68
2021/07/08 08:34:43;;;;;;;15.73;8.15;;;;;;;;;;5134439;27;20023;-68
2021/07/08 08:37:09;;;;;;;12.90;8.48;;;;;;;;;;5134427;27;20131;-69
2021/07/08 08:39:35;;;;;;;10.90;8.13;;;;;;;;;;5134178;27;20045;-69
2021/07/08 08:42:01;;;;;;;8.95;8.05;;;;;;;;;;5115885;27;20027;-69
2021/07/08 08:44:28;;;;;;;12.02;8.38;;;;;;;;;;5134641;27;20033;-70
2021/07/08 08:46:57;;;;;;;10.68;8.02;;;;;;;;;;5134276;27;20038;-70
2021/07/08 08:49:23;;;;;;;10.85;8.23;;;;;;;;;;5134196;27;20475;-70
2021/07/08 08:51:49;;;;;;;11.60;7.07;;;;;;;;;;5115824;27;20110;-69
2021/07/08 08:54:16;;;;;;;11.43;7.85;;;;;;;;;;5133938;27;20058;-71
2021/07/08 08:56:43;;;;;;;7.43;6.70;;;;;;;;;;5116038;27;20025;-69
2021/07/08 08:59:09;;;;;;;7.90;7.03;;;;;;;;;;5115712;27;20064;-69
2021/07/08 09:01:35;;;;;;;8.48;7.45;;;;;;;;;;5115645;27;20110;-70
2021/07/08 09:04:01;;;;;;;10.18;7.10;;;;;;;;;;5133742;27;20019;-69
2021/07/08 09:06:36;;;;;;;15.27;6.78;;;;;;;;;;5132084;27;20022;-71
2021/07/08 09:09:08;;;;;;;11.45;6.60;;;;;;;;;;5125786;27;20049;-71
2021/07/08 09:11:35;;;;;;;9.32;6.82;;;;;;;;;;5122525;28;20024;-70
2021/07/08 09:14:05;;;;;;;14.07;7.47;;;;;;;;;;5115524;28;20019;-69
2021/07/08 09:16:36;;;;;;;10.50;6.97;;;;;;;;;;5133435;27;20065;-70
2021/07/08 09:19:19;;;;;;;9.40;6.70;;;;;;;;;;5115414;28;20023;-68
2021/07/08 09:21:48;;;;;;;10.45;5.90;;;;;;;;;;5133749;28;20046;-70
2021/07/08 09:24:21;;;;;;;7.43;5.93;;;;;;;;;;5133794;28;20057;-69
2021/07/08 09:26:58;;;;;;;7.45;5.88;;;;;;;;;;5133849;28;20050;-70
2021/07/08 09:29:26;;;;;;;10.95;6.45;;;;;;;;;;5133890;28;20076;-69
2021/07/08 09:32:13;;;;;;;7.40;5.82;;;;;;;;;;5133822;28;20068;-71
2021/07/08 09:34:40;;;;;;;8.43;5.68;;;;;;;;;;5133947;28;20076;-70
2021/07/08 09:37:06;;;;;;;16.17;5.55;;;;;;;;;;5133223;27;20050;-69
2021/07/08 09:39:37;;;;;;;7.30;5.05;;;;;;;;;;5133779;28;20015;-69
2021/07/08 09:42:03;;;;;;;;;;;;;;;;;;5134194;28;20506;-70
2021/07/08 09:44:29;;;;;;;22.65;6.32;;;;;;;;;;5133424;28;19935;-67
2021/07/08 09:46:56;;;;;;;5.85;5.28;;;;;;;;;;5133539;28;20106;-69
2021/07/08 09:49:23;;;;;;;9.88;5.20;;;;;;;;;;5133610;28;20020;-69
2021/07/08 09:51:50;;;;;;;5.72;4.43;;;;;;;;;;5133199;28;20464;-68
2021/07/08 09:54:42;;;;;;;4.90;4.50;;;;;;;;;;5126428;28;20111;-68
2021/07/08 09:57:08;;;;;;;7.15;4.28;;;;;;;;;;5127849;28;20027;-69
2021/07/08 09:59:35;;;;;;;5.38;3.78;;;;;;;;;;5133623;28;20027;-68
2021/07/08 10:02:02;;;;;;;5.35;4.72;;;;;;;;;;5112977;28;20028;-68
2021/07/08 10:04:28;;;;;;;8.05;4.07;;;;;;;;;;5116382;28;20031;-69
2021/07/08 10:06:55;;;;;;;6.68;4.68;;;;;;;;;;5117088;28;20553;-69
2021/07/08 10:09:23;;;;;;;4.70;4.30;;;;;;;;;;5116631;28;20055;-70
2021/07/08 10:11:51;;;;;;;5.63;4.40;;;;;;;;;;5116672;28;20460;-71
2021/07/08 10:14:18;;;;;;;4.53;4.13;;;;;;;;;;5116499;28;20038;-69
2021/07/08 10:16:48;;;;;;;10.32;3.97;;;;;;;;;;5114568;28;20032;-70
2021/07/08 10:19:17;;;;;;;8.77;4.23;;;;;;;;;;5115248;28;20032;-67
2021/07/08 10:21:44;;;;;;;8.43;4.18;;;;;;;;;;5116392;28;20251;-71
2021/07/08 10:24:12;;;;;;;11.02;4.30;;;;;;;;;;5114926;28;20066;-69
2021/07/08 10:26:39;;;;;;;4.93;3.60;;;;;;;;;;5114606;28;20035;-70
2021/07/08 10:29:08;;;;;;;4.15;3.65;;;;;;;;;;5114540;28;20031;-69
2021/07/08 10:31:34;;;;;;;8.27;3.85;;;;;;;;;;5115024;28;20031;-67
2021/07/08 10:34:17;;;;;;;4.53;4.13;;;;;;;;;;5114947;28;20774;-69
2021/07/08 10:36:45;;;;;;;5.53;4.13;;;;;;;;;;5115229;28;20062;-70
2021/07/08 10:39:14;;;;;;;4.72;4.03;;;;;;;;;;5115957;28;20023;-67
2021/07/08 10:41:41;;;;;;;12.10;4.10;;;;;;;;;;5115854;28;20024;-66
2021/07/08 10:44:28;;;;;;;8.10;4.63;;;;;;;;;;5116059;28;20027;-67
2021/07/08 10:46:54;;;;;;;5.07;4.57;;;;;;;;;;5115822;28;20039;-66
2021/07/08 10:49:20;;;;;;;8.68;4.70;;;;;;;;;;5114560;28;20184;-65
2021/07/08 10:51:46;;;;;;;17.38;4.75;;;;;;;;;;5115841;28;20045;-67
2021/07/08 10:54:25;;;;;;;7.47;4.18;;;;;;;;;;5115498;28;20024;-71
2021/07/08 10:56:52;;;;;;;6.95;4.60;;;;;;;;;;5115884;28;20027;-68
2021/07/08 10:59:18;;;;;;;4.45;4.03;;;;;;;;;;5115739;28;20456;-67
2021/07/08 11:01:50;;;;;;;7.88;4.28;;;;;;;;;;5114469;28;20114;-66
2021/07/08 11:04:37;;;;;;;6.03;4.30;;;;;;;;;;5114351;28;20022;-67
2021/07/08 11:07:18;;;;;;;4.60;4.07;;;;;;;;;;5115425;28;20027;-66
2021/07/08 11:09:57;;;;;;;6.97;3.97;;;;;;;;;;5129166;27;20114;-67
2021/07/08 11:12:29;;;;;;;6.38;4.00;;;;;;;;;;5116473;27;20030;-67
2021/07/08 11:14:55;;;;;;;4.72;4.15;;;;;;;;;;5115149;27;20026;-66
2021/07/08 11:17:22;;;;;;;4.43;4.03;;;;;;;;;;5134666;27;20031;-69
2021/07/08 11:19:49;;;;;;;5.63;4.10;;;;;;;;;;5135093;27;20119;-68
2021/07/08 11:22:22;;;;;;;4.03;3.72;;;;;;;;;;5115725;27;20480;-66
2021/07/08 11:24:53;;;;;;;9.68;3.95;;;;;;;;;;5129358;27;20083;-69
2021/07/08 11:27:33;;;;;;;4.90;4.15;;;;;;;;;;5134500;27;20027;-68
2021/07/08 11:30:20;;;;;;;9.90;3.70;;;;;;;;;;5112239;27;20096;-65
2021/07/08 11:32:50;;;;;;;9.43;4.18;;;;;;;;;;5115560;27;20031;-66
2021/07/08 11:35:56;;;;;;;9.27;4.03;;;;;;;;;;5135315;27;20015;-66
2021/07/08 11:38:14;;;;;;;9.00;3.72;;;46.50;63.80;;;;;;5129249;27;20443;-66
2021/07/08 11:40:42;;;;;;;4.00;3.70;;;;;;;;;;5134322;27;20121;-66
2021/07/08 11:43:14;;;;;;;4.28;3.88;;;;;;;;;;5135262;27;20015;-66
2021/07/08 11:45:41;;;;;;;6.05;4.25;;;;;;;;;;5135381;27;20478;-67
2021/07/08 11:48:07;;;;;;;9.75;4.45;;;46.80;69.60;;;;;;5135367;27;20535;-66
2021/07/08 11:50:37;;;;;;;4.85;3.80;;;47.00;65.00;;;;;;5116541;27;20047;-67
2021/07/08 11:53:14;;;;;;;4.25;3.85;;;;;;;;;;5135244;27;20070;-66
2021/07/08 11:55:45;;;;;;;4.70;4.20;;;47.60;66.50;;;;;;5135196;27;20038;-67
2021/07/08 11:58:12;;;;;;;4.50;3.38;;;;;;;;;;5134954;27;20029;-65
2021/07/08 12:00:47;;;;;;;4.28;3.75;;;;;;;;;;5134933;27;20023;-65
2021/07/08 12:03:39;;;;;;;5.53;3.97;;;48.20;45.70;;;;;;5134576;27;20019;-66
2021/07/08 12:06:22;;;;;;;3.92;3.55;;;48.50;41.80;;;;;;5116314;27;20117;-65
2021/07/08 12:08:53;;;;;;;4.07;3.67;;;48.40;41.10;;;;;;5133154;27;20030;-66
2021/07/08 12:11:35;;;;;;;7.97;4.25;;;48.60;41.60;;;;;;5133402;27;20071;-68
2021/07/08 12:14:09;;;;;;;5.40;4.00;;;48.90;41.60;;;;;;5115451;27;20027;-67
2021/07/08 12:16:39;;;;;;;4.20;3.80;;;49.10;40.90;;;;;;5135039;27;20054;-67
2021/07/08 12:19:07;;;;;;;5.15;4.22;;;49.10;41.10;;;;;;5134578;27;20053;-64
2021/07/08 12:21:38;;;;;;;5.70;3.72;;;49.10;40.50;;;;;;5134259;27;20031;-67
2021/07/08 12:24:37;;;;;;;4.85;3.75;;;49.30;41.20;;;;;;5134683;27;20498;-70
2021/07/08 12:27:05;;;;;;;3.80;3.50;;;49.20;42.20;;;;;;5116814;27;20125;-72
2021/07/08 12:29:39;;;;;;;8.38;4.15;;;49.70;40.20;;;;;;5135612;27;20039;-69
2021/07/08 12:32:15;;;;;;;4.28;3.90;;;49.60;39.10;;;;;;5133442;27;20600;-68
2021/07/08 12:34:46;;;;;;;9.02;3.95;;;50.00;43.80;;;;;;5134658;27;20070;-70
2021/07/08 12:37:14;;;;;;;7.50;3.67;;;50.50;39.70;;;;;;5134783;27;20058;-69
2021/07/08 12:39:41;;;;;;;5.45;3.58;;;50.60;41.00;;;;;;5135658;27;20487;-69
2021/07/08 12:42:14;;;;;;;4.20;3.90;;;50.10;41.30;;;;;;5135181;27;20019;-68
2021/07/08 12:44:40;;;;;;;8.57;3.75;;;51.10;50.10;;;;;;5134125;27;20035;-66
2021/07/08 12:47:06;;;;;;;6.78;3.83;;;51.30;37.00;;;;;;5134130;27;20035;-67
2021/07/08 12:49:32;;;;;;;3.85;3.50;;;50.80;37.30;;;;;;5133966;27;20031;-68
2021/07/08 12:51:58;;;;;;;4.53;4.20;;;51.30;37.40;;;;;;5115835;27;20481;-67
2021/07/08 12:54:28;;;;;;;4.10;3.70;;;51.60;36.50;;;;;;5134251;27;20470;-68
2021/07/08 12:57:08;;;;;;;3.83;3.53;;;51.30;36.00;;;;;;5134297;27;20027;-68
2021/07/08 12:59:35;;;;;;;4.03;3.63;;;51.50;37.20;;;;;;5132703;27;20024;-68
2021/07/08 13:02:00;;;;;;;7.03;3.70;;;51.90;36.60;;;;;;5115659;27;20425;-67
2021/07/08 13:04:34;;;;;;;6.38;4.10;;;52.10;46.70;;;;;;5134341;27;20031;-69
2021/07/08 13:07:03;;;;;;;5.93;3.78;;;52.90;57.80;;;;;;5134096;27;20031;-67
2021/07/08 13:09:29;;;;;;;5.82;3.38;;;52.50;35.70;;;;;;5133972;27;20069;-67
2021/07/08 13:12:16;;;;;;;3.20;3.00;;;52.70;35.70;;;;;;5134324;27;20019;-68
2021/07/08 13:14:42;;;;;;;4.55;3.38;;;52.70;36.40;;;;;;5115568;28;20114;-68
2021/07/08 13:17:09;;;;;;;3.35;3.05;;;52.70;35.90;;;;;;5134070;28;20114;-67
2021/07/08 13:19:38;;;;;;;4.93;3.80;;;52.90;35.20;;;;;;5133927;28;20107;-67
2021/07/08 13:22:17;;;;;;;3.40;3.10;;;52.90;35.50;;;;;;5133867;28;20059;-69
2021/07/08 13:24:44;;;;;;;7.63;3.37;;;53.30;35.50;;;;;;5134175;28;20038;-69
2021/07/08 13:27:10;;;;;;;3.90;3.50;;;53.40;35.90;;;;;;5133790;28;20103;-67
2021/07/08 13:29:36;;;;;;;4.78;3.47;;;53.80;39.10;;;;;;5133875;28;20034;-70
2021/07/08 13:32:17;;;;;;;3.63;3.35;;;53.70;35.40;;;;;;5133826;28;20019;-70
2021/07/08 13:34:48;;;;;;;4.00;3.40;;;54.00;42.70;;;;;;5133835;28;20023;-68
2021/07/08 13:37:21;;;;;;;4.18;3.10;;;;;;;;;;5133725;27;20437;-71
2021/07/08 13:39:47;;;;;;;3.95;3.08;;;53.70;36.50;;;;;;5137890;27;20023;-70
2021/07/08 13:42:13;;;;;;;5.55;3.60;;;53.70;35.10;;;;;;5137922;27;20016;-67
2021/07/08 13:44:40;;;;;;;3.45;3.15;;;54.30;43.70;;;;;;5137798;27;20034;-69
2021/07/08 13:47:07;;;;;;;3.47;3.20;;;54.10;47.10;;;;;;5137712;27;20045;-69
2021/07/08 13:49:42;;;;;;;4.35;3.60;;;54.30;34.60;;;;;;5137686;27;20031;-68
2021/07/08 13:52:11;;;;;;;3.85;3.45;;;54.00;34.70;;;;;;5119536;27;20360;-68
2021/07/08 13:54:40;;;;;;;3.45;3.15;;;54.40;33.90;;;;;;5137632;27;20464;-68
2021/07/08 13:57:07;;;;;;;7.93;3.35;;;;;;;;;;5137715;27;20519;-67
2021/07/08 13:59:34;;;;;;;4.38;3.60;;;55.00;46.60;;;;;;5137485;27;20467;-70
2021/07/08 14:02:00;;;;;;;5.00;3.10;;;;;;;;;;5118966;27;20429;-69
2021/07/08 14:04:26;;;;;;;6.53;3.40;;;55.00;58.40;;;;;;5137263;27;20019;-67
2021/07/08 14:06:53;;;;;;;4.30;2.83;;;;;;;;;;5137255;27;20114;-68
2021/07/08 14:09:26;;;;;;;4.55;3.45;;;;;;;;;;5137350;27;20076;-69
2021/07/08 14:11:54;;;;;;;4.13;3.67;;;55.20;55.40;;;;;;5137387;27;20023;-71
2021/07/08 14:14:20;;;;;;;5.35;3.20;;;55.00;48.90;;;;;;5137268;27;20035;-67
2021/07/08 14:16:47;;;;;;;5.15;3.33;;;55.50;45.00;;;;;;5137280;27;20034;-67
2021/07/08 14:19:14;;;;;;;6.82;3.65;;;;;;;;;;5137266;27;20023;-69
2021/07/08 14:21:40;;;;;;;4.82;3.55;;;;;;;;;;5137131;27;20015;-68